Berretta, Argentina
Current Conditions -  °F | °C
As of 12:00 AM on Friday 28 Nov 2014 (Local Time) from SAAR Reporting Station
Clear Clear  
Wind Chill: 73°   Ceiling: Unl
Heat Index: 73°   Visibility: 6mi
Dew Point: 54°   Wind: 10mph
Humidity: 50%   Direction: 50°NE
Pressure: 29.91"   Gusts: NA
Location:  32.9°S, 61.43°W
Report Text: SAAR 280300Z 05009KT CAVOK 23/12 Q1013
Loading
Personal Weather Stations






























Interactive Weather Map New forecast layout! Learn more

10-Day Weather Forecast

Advertisements
Track Severe Weather on mobile